createdAt,value
2023-04-18T00:00:05.148Z,93.63
2023-04-18T00:06:07.165Z,94.49
2023-04-18T00:12:11.064Z,93.97
2023-04-18T00:18:17.234Z,93.35
2023-04-18T00:24:19.834Z,92.42
2023-04-18T00:30:21.799Z,92.31
2023-04-18T00:36:23.720Z,91.75
2023-04-18T00:42:27.784Z,90.70
2023-04-18T00:48:34.631Z,90.34
2023-04-18T00:54:36.806Z,89.45
2023-04-18T01:00:38.756Z,88.29
2023-04-18T01:06:41.708Z,87.66
2023-04-18T01:12:43.619Z,87.15
2023-04-18T01:18:46.315Z,87.59
2023-04-18T01:24:48.269Z,87.42
2023-04-18T01:30:50.139Z,87.27
2023-04-18T01:36:52.058Z,87.37
2023-04-18T01:42:53.972Z,87.71
2023-04-18T01:48:59.603Z,88.17
2023-04-18T01:55:05.991Z,87.89
2023-04-18T02:01:07.962Z,88.37
2023-04-18T02:07:09.871Z,88.65
2023-04-18T02:13:11.770Z,89.52
2023-04-18T02:19:13.669Z,89.34
2023-04-18T02:25:15.659Z,89.80
2023-04-18T02:31:17.649Z,88.52
2023-04-18T02:37:19.577Z,89.59
2023-04-18T02:43:21.442Z,90.20
2023-04-18T02:49:23.489Z,90.77
2023-04-18T02:55:26.897Z,90.98
2023-04-18T03:01:29.042Z,91.62
2023-04-18T03:07:31.163Z,92.19
2023-04-18T03:13:35.191Z,92.98
2023-04-18T03:19:37.257Z,92.78
2023-04-18T03:25:39.158Z,92.93
2023-04-18T03:31:41.556Z,93.15
2023-04-18T03:37:43.604Z,93.00
2023-04-18T03:43:45.528Z,94.22
2023-04-18T03:49:47.416Z,93.45
2023-04-18T03:55:49.388Z,93.31
2023-04-18T04:01:51.305Z,92.82
2023-04-18T04:07:53.250Z,93.47
2023-04-18T04:13:55.211Z,94.00
2023-04-18T04:19:57.116Z,94.20
2023-04-18T04:26:03.096Z,94.63
2023-04-18T04:32:06.568Z,93.96
2023-04-18T04:38:08.603Z,93.61
2023-04-18T04:44:10.539Z,92.98
2023-04-18T04:50:15.587Z,92.07
2023-04-18T04:56:17.574Z,90.79
2023-04-18T05:02:23.209Z,91.46
2023-04-18T05:08:26.194Z,90.08
2023-04-18T05:14:28.081Z,89.10
2023-04-18T05:20:29.953Z,88.14
2023-04-18T05:26:31.853Z,87.97
2023-04-18T05:32:33.783Z,87.91
2023-04-18T05:38:35.746Z,88.19
2023-04-18T05:44:37.659Z,87.09
2023-04-18T05:50:39.924Z,88.23
2023-04-18T05:56:41.908Z,87.80
2023-04-18T06:02:43.981Z,88.50
2023-04-18T06:08:46.247Z,87.89
2023-04-18T06:14:49.382Z,86.94
2023-04-18T06:20:51.661Z,86.21
2023-04-18T06:26:55.198Z,85.36
2023-04-18T06:32:57.130Z,85.97
2023-04-18T06:38:59.087Z,84.85
2023-04-18T06:45:01.028Z,83.83
2023-04-18T06:51:03.342Z,82.95
2023-04-18T06:57:05.471Z,83.75
2023-04-18T07:03:11.438Z,76.46
2023-04-18T07:09:13.546Z,74.42
2023-04-18T07:15:15.553Z,75.75
2023-04-18T07:21:18.492Z,77.29
2023-04-18T07:27:20.384Z,75.95
2023-04-18T07:33:22.835Z,75.79
2023-04-18T07:39:24.755Z,74.51
2023-04-18T07:45:26.658Z,74.73
2023-04-18T07:51:31.828Z,75.80
2023-04-18T07:57:33.738Z,75.33
2023-04-18T08:03:37.112Z,72.38
2023-04-18T08:09:39.119Z,72.72
2023-04-18T08:15:41.113Z,70.55
2023-04-18T08:21:43.069Z,68.96
2023-04-18T08:27:45.073Z,67.61
2023-04-18T08:33:46.978Z,67.51
2023-04-18T08:39:48.868Z,64.09
2023-04-18T08:45:52.350Z,61.09
2023-04-18T08:51:54.282Z,59.27
2023-04-18T08:57:56.916Z,61.35
2023-04-18T09:03:58.868Z,59.51
2023-04-18T09:10:00.927Z,56.52
2023-04-18T09:16:02.859Z,55.82
2023-04-18T09:22:04.809Z,57.68
2023-04-18T09:28:28.478Z,58.28
2023-04-18T09:34:30.393Z,58.47
2023-04-18T09:40:33.484Z,56.51
2023-04-18T09:46:36.143Z,55.80
2023-04-18T09:52:42.675Z,54.28
2023-04-18T09:58:47.288Z,54.07
2023-04-18T10:04:54.314Z,54.94
2023-04-18T10:10:58.609Z,51.55
2023-04-18T10:17:01.087Z,52.03
2023-04-18T10:23:31.049Z,50.23
2023-04-18T10:29:52.904Z,49.63
2023-04-18T10:36:11.473Z,50.50
2023-04-18T10:42:13.397Z,56.84
2023-04-18T10:48:32.733Z,59.98
2023-04-18T10:55:04.977Z,60.56
2023-04-18T11:01:09.052Z,54.00
2023-04-18T11:07:11.020Z,49.19
2023-04-18T11:13:12.913Z,48.71
2023-04-18T11:19:23.781Z,46.92
2023-04-18T11:25:32.111Z,43.37
2023-04-18T11:31:34.156Z,42.25
2023-04-18T11:37:38.284Z,45.46
2023-04-18T11:43:46.464Z,45.21
2023-04-18T11:49:48.381Z,42.55
2023-04-18T11:55:56.554Z,41.51
2023-04-18T12:02:15.387Z,39.11
2023-04-18T12:08:20.940Z,44.16
2023-04-18T12:14:23.299Z,43.00
2023-04-18T12:20:25.406Z,42.48
2023-04-18T12:26:27.456Z,42.44
2023-04-18T12:32:29.366Z,40.42
2023-04-18T12:38:31.296Z,39.28
2023-04-18T12:44:34.642Z,38.38
2023-04-18T12:50:36.670Z,39.70
2023-04-18T12:56:38.640Z,42.09
2023-04-18T13:02:44.393Z,43.40
2023-04-18T13:08:47.470Z,45.66
2023-04-18T13:14:49.387Z,51.37
2023-04-18T13:20:51.439Z,54.64
2023-04-18T13:26:53.426Z,55.73
2023-04-18T13:32:55.453Z,57.34
2023-04-18T13:38:57.498Z,59.42
2023-04-18T13:45:00.000Z,55.87
2023-04-18T13:51:02.786Z,47.32
2023-04-18T13:57:06.957Z,44.31
2023-04-18T14:03:09.006Z,44.85
2023-04-18T14:09:10.962Z,44.76
2023-04-18T14:15:12.967Z,40.79
2023-04-18T14:21:14.857Z,39.77
2023-04-18T14:27:16.897Z,39.42
2023-04-18T14:33:18.866Z,44.81
2023-04-18T14:39:21.619Z,43.50
2023-04-18T14:45:23.569Z,47.47
2023-04-18T14:51:26.218Z,43.10
2023-04-18T14:57:29.301Z,43.79
2023-04-18T15:03:31.456Z,46.55
2023-04-18T15:09:39.502Z,48.53
2023-04-18T15:15:41.470Z,47.19
2023-04-18T15:21:43.364Z,50.67
2023-04-18T15:27:45.403Z,55.65
2023-04-18T15:33:47.313Z,58.61
2023-04-18T15:39:49.224Z,58.67
2023-04-18T15:45:51.450Z,59.66
2023-04-18T15:51:53.366Z,60.62
2023-04-18T15:57:55.797Z,60.67
2023-04-18T16:03:57.832Z,58.82
2023-04-18T16:10:02.617Z,58.17
2023-04-18T16:16:05.563Z,58.88
2023-04-18T16:22:07.884Z,60.26
2023-04-18T16:28:09.792Z,61.74
2023-04-18T16:34:11.801Z,63.32
2023-04-18T16:40:14.267Z,65.14
2023-04-18T16:46:16.238Z,65.39
2023-04-18T16:52:18.525Z,65.71
2023-04-18T16:58:22.879Z,66.42
2023-04-18T17:04:26.911Z,67.09
2023-04-18T17:10:30.377Z,67.53
2023-04-18T17:16:32.391Z,68.85
2023-04-18T17:22:34.945Z,69.42
2023-04-18T17:28:37.154Z,70.50
2023-04-18T17:34:39.070Z,70.95
2023-04-18T17:40:40.990Z,70.72
2023-04-18T17:46:42.866Z,71.50
2023-04-18T17:52:46.414Z,71.81
2023-04-18T17:58:49.341Z,72.73
2023-04-18T18:04:51.657Z,73.63
2023-04-18T18:10:53.556Z,73.93
2023-04-18T18:16:56.034Z,75.30
2023-04-18T18:23:01.690Z,76.32
2023-04-18T18:29:13.033Z,76.07
2023-04-18T18:35:15.381Z,76.24
2023-04-18T18:41:17.301Z,77.52
2023-04-18T18:47:19.358Z,78.13
2023-04-18T18:53:21.321Z,78.86
2023-04-18T18:59:23.429Z,78.66
2023-04-18T19:05:25.521Z,78.05
2023-04-18T19:11:27.834Z,78.70
2023-04-18T19:17:30.968Z,78.81
2023-04-18T19:23:33.038Z,77.58
2023-04-18T19:29:36.380Z,78.54
2023-04-18T19:35:38.429Z,79.44
2023-04-18T19:41:41.624Z,79.35
2023-04-18T19:47:44.907Z,79.30
2023-04-18T19:53:46.854Z,79.86
2023-04-18T19:59:48.744Z,79.47
2023-04-18T20:05:50.797Z,80.44
2023-04-18T20:11:54.287Z,80.14
2023-04-18T20:17:56.207Z,80.30
2023-04-18T20:23:59.219Z,80.33
2023-04-18T20:30:01.211Z,80.61
2023-04-18T20:36:03.580Z,80.89
2023-04-18T20:42:05.563Z,81.15
2023-04-18T20:48:07.618Z,80.16
2023-04-18T20:54:09.510Z,80.78
2023-04-18T21:00:13.888Z,80.21
2023-04-18T21:06:15.939Z,79.67
2023-04-18T21:12:17.858Z,79.35
2023-04-18T21:18:19.793Z,78.17
2023-04-18T21:24:21.771Z,78.16
2023-04-18T21:30:23.853Z,77.60
2023-04-18T21:36:27.833Z,77.08
2023-04-18T21:42:29.880Z,76.47
2023-04-18T21:48:31.902Z,74.85
2023-04-18T21:54:33.815Z,75.34
2023-04-18T22:00:35.752Z,73.32
2023-04-18T22:06:37.683Z,74.90
2023-04-18T22:12:39.718Z,74.72
2023-04-18T22:18:41.807Z,74.25
2023-04-18T22:24:45.000Z,73.77
2023-04-18T22:30:49.078Z,73.73
2023-04-18T22:36:51.106Z,73.35
2023-04-18T22:42:53.037Z,73.38
2023-04-18T22:48:55.224Z,73.73
2023-04-18T22:54:57.195Z,74.07
2023-04-18T23:00:59.915Z,73.83
2023-04-18T23:07:01.852Z,73.76
2023-04-18T23:13:03.805Z,72.12
2023-04-18T23:19:05.855Z,70.74
2023-04-18T23:25:07.940Z,70.01
2023-04-18T23:31:10.017Z,69.18
2023-04-18T23:37:12.102Z,69.43
2023-04-18T23:43:14.005Z,69.87
2023-04-18T23:49:16.610Z,67.91
2023-04-18T23:55:18.544Z,67.90
